createdAt,value
2019-05-30T00:00:30.014Z,2.60
2019-05-30T00:03:05.343Z,2.40
2019-05-30T00:05:49.687Z,2.98
2019-05-30T00:08:18.417Z,2.67
2019-05-30T00:10:54.275Z,3.22
2019-05-30T00:13:24.224Z,2.47
2019-05-30T00:15:56.571Z,2.75
2019-05-30T00:18:52.428Z,2.65
2019-05-30T00:21:24.051Z,2.62
2019-05-30T00:24:02.030Z,2.85
2019-05-30T00:26:36.727Z,3.00
2019-05-30T00:29:12.462Z,2.92
2019-05-30T00:32:04.367Z,3.27
2019-05-30T00:35:07.466Z,3.20
2019-05-30T00:37:46.124Z,3.08
2019-05-30T00:40:15.349Z,3.12
2019-05-30T00:43:00.253Z,3.00
2019-05-30T00:49:02.463Z,2.47
2019-05-30T00:51:44.090Z,2.30
2019-05-30T00:56:49.734Z,2.45
2019-05-30T00:59:22.851Z,2.42
2019-05-30T01:02:02.796Z,2.25
2019-05-30T01:04:37.562Z,2.10
2019-05-30T01:10:36.290Z,1.90
2019-05-30T01:13:11.062Z,1.95
2019-05-30T01:15:42.508Z,2.20
2019-05-30T01:20:43.466Z,2.10
2019-05-30T01:26:43.676Z,1.80
2019-05-30T01:30:10.655Z,1.77
2019-05-30T01:33:01.795Z,1.67
2019-05-30T01:39:14.253Z,2.00
2019-05-30T01:41:48.759Z,1.90
2019-05-30T01:44:41.584Z,2.15
2019-05-30T01:47:27.170Z,2.37
2019-05-30T01:50:00.326Z,2.33
2019-05-30T01:53:35.137Z,2.45
2019-05-30T01:56:09.225Z,2.33
2019-05-30T01:58:41.074Z,2.17
2019-05-30T02:01:25.216Z,2.20
2019-05-30T02:03:53.903Z,2.47
2019-05-30T02:06:28.296Z,2.37
2019-05-30T02:09:36.325Z,2.60
2019-05-30T02:12:50.104Z,2.87
2019-05-30T02:15:19.139Z,2.85
2019-05-30T02:18:05.730Z,3.05
2019-05-30T02:20:37.543Z,3.33
2019-05-30T02:23:12.071Z,3.30
2019-05-30T02:25:46.401Z,3.75
2019-05-30T02:28:15.116Z,3.75
2019-05-30T02:30:45.066Z,3.37
2019-05-30T02:33:18.032Z,3.62
2019-05-30T02:36:01.317Z,3.70
2019-05-30T02:38:36.856Z,3.77
2019-05-30T02:41:10.079Z,3.42
2019-05-30T02:43:52.709Z,3.80
2019-05-30T02:46:25.065Z,4.08
2019-05-30T02:49:01.608Z,4.08
2019-05-30T02:51:29.805Z,5.05
2019-05-30T02:53:59.473Z,5.03
2019-05-30T02:56:33.524Z,5.05
2019-05-30T02:59:34.037Z,5.12
2019-05-30T03:02:12.388Z,5.50
2019-05-30T03:04:55.296Z,5.85
2019-05-30T03:07:31.679Z,6.05
2019-05-30T03:10:44.964Z,5.50
2019-05-30T03:13:21.017Z,6.35
2019-05-30T03:16:14.788Z,6.10
2019-05-30T03:18:44.562Z,5.47
2019-05-30T03:21:19.299Z,6.58
2019-05-30T03:23:55.005Z,6.08
2019-05-30T03:26:29.892Z,6.50
2019-05-30T03:28:59.914Z,6.97
2019-05-30T03:31:34.626Z,7.00
2019-05-30T03:34:22.877Z,6.28
2019-05-30T03:37:26.782Z,6.62
2019-05-30T03:39:48.060Z,6.40
2019-05-30T03:42:17.882Z,6.55
2019-05-30T03:45:16.436Z,6.08
2019-05-30T03:47:54.030Z,6.28
2019-05-30T03:50:33.337Z,6.20
2019-05-30T03:53:06.874Z,6.87
2019-05-30T03:55:37.637Z,6.70
2019-05-30T03:58:27.494Z,6.78
2019-05-30T04:01:02.745Z,7.30
2019-05-30T04:03:55.302Z,6.78
2019-05-30T04:06:44.144Z,7.60
2019-05-30T04:09:25.476Z,7.47
2019-05-30T04:11:58.355Z,7.22
2019-05-30T04:14:31.330Z,7.72
2019-05-30T04:17:05.762Z,7.70
2019-05-30T04:19:38.862Z,7.53
2019-05-30T04:22:45.289Z,7.00
2019-05-30T04:25:22.306Z,6.85
2019-05-30T04:27:58.291Z,7.00
2019-05-30T04:30:54.155Z,6.17
2019-05-30T04:33:58.386Z,6.60
2019-05-30T04:36:30.525Z,5.90
2019-05-30T04:39:02.354Z,5.42
2019-05-30T04:41:34.239Z,6.33
2019-05-30T04:44:11.648Z,5.50
2019-05-30T04:46:42.100Z,4.83
2019-05-30T04:49:14.466Z,5.20
2019-05-30T04:51:58.470Z,5.67
2019-05-30T04:54:33.061Z,5.37
2019-05-30T04:57:05.027Z,5.20
2019-05-30T04:59:35.180Z,5.40
2019-05-30T05:02:13.168Z,4.87
2019-05-30T05:04:46.453Z,4.70
2019-05-30T05:07:23.382Z,5.33
2019-05-30T05:09:52.251Z,5.35
2019-05-30T05:12:23.263Z,5.22
2019-05-30T05:14:54.990Z,5.28
2019-05-30T05:17:26.706Z,5.05
2019-05-30T05:23:36.180Z,4.97
2019-05-30T05:26:39.897Z,5.15
2019-05-30T05:29:52.582Z,5.35
2019-05-30T05:32:22.565Z,5.20
2019-05-30T05:34:57.103Z,5.35
2019-05-30T05:37:40.641Z,4.53
2019-05-30T05:40:18.028Z,6.15
2019-05-30T05:42:49.237Z,5.05
2019-05-30T05:46:14.148Z,5.55
2019-05-30T05:48:48.765Z,5.05
2019-05-30T05:51:20.802Z,5.80
2019-05-30T05:53:49.681Z,5.55
2019-05-30T05:56:55.517Z,5.50
2019-05-30T06:00:10.140Z,6.28
2019-05-30T06:02:47.228Z,6.67
2019-05-30T06:05:24.396Z,6.17
2019-05-30T06:07:51.779Z,6.15
2019-05-30T06:10:36.617Z,5.87
2019-05-30T06:14:00.282Z,6.22
2019-05-30T06:16:33.536Z,6.50
2019-05-30T06:19:04.830Z,6.78
2019-05-30T06:21:36.143Z,6.72
2019-05-30T06:24:06.933Z,7.10
2019-05-30T06:26:39.253Z,6.17
2019-05-30T06:29:09.831Z,6.35
2019-05-30T06:32:16.826Z,6.08
2019-05-30T06:34:59.503Z,6.97
2019-05-30T06:37:39.808Z,6.55
2019-05-30T06:40:11.799Z,6.90
2019-05-30T06:43:34.054Z,6.45
2019-05-30T06:46:16.094Z,6.35
2019-05-30T06:48:52.474Z,7.42
2019-05-30T06:51:32.513Z,7.45
2019-05-30T06:54:14.694Z,6.73
2019-05-30T06:56:44.907Z,7.72
2019-05-30T06:59:37.815Z,7.50
2019-05-30T07:02:39.107Z,6.92
2019-05-30T07:05:15.482Z,7.15
2019-05-30T07:07:44.899Z,6.65
2019-05-30T07:10:17.546Z,6.75
2019-05-30T07:13:15.487Z,6.80
2019-05-30T07:15:48.853Z,7.00
2019-05-30T07:18:27.420Z,6.85
2019-05-30T07:20:59.721Z,7.22
2019-05-30T07:23:39.237Z,7.00
2019-05-30T07:26:06.753Z,7.95
2019-05-30T07:29:32.121Z,8.33
2019-05-30T07:32:00.772Z,8.28
2019-05-30T07:34:36.358Z,8.90
2019-05-30T07:40:51.817Z,9.25
2019-05-30T07:46:54.275Z,8.38
2019-05-30T07:49:22.831Z,8.85
2019-05-30T07:51:54.441Z,8.55
2019-05-30T07:54:26.845Z,9.40
2019-05-30T07:57:10.622Z,8.48
2019-05-30T07:59:46.063Z,8.20
2019-05-30T08:02:20.870Z,8.68
2019-05-30T08:04:55.399Z,8.80
2019-05-30T08:07:30.672Z,8.58
2019-05-30T08:13:47.110Z,8.68
2019-05-30T08:16:41.549Z,9.00
2019-05-30T08:19:25.330Z,8.80
2019-05-30T08:21:53.972Z,8.38
2019-05-30T08:25:16.261Z,8.18
2019-05-30T08:28:21.783Z,8.13
2019-05-30T08:34:25.637Z,9.08
2019-05-30T08:37:00.086Z,8.73
2019-05-30T08:39:58.957Z,8.48
2019-05-30T08:42:33.319Z,8.18
2019-05-30T08:45:09.931Z,8.95
2019-05-30T08:47:50.655Z,9.00
2019-05-30T08:50:28.133Z,9.38
2019-05-30T08:53:04.952Z,9.00
2019-05-30T08:55:34.510Z,8.90
2019-05-30T08:58:04.454Z,8.50
2019-05-30T09:00:40.208Z,9.35
2019-05-30T09:03:13.186Z,9.25
2019-05-30T09:06:02.673Z,8.93
2019-05-30T09:08:24.370Z,8.70
2019-05-30T09:10:55.107Z,9.53
2019-05-30T09:13:34.527Z,8.98
2019-05-30T09:16:09.019Z,8.90
2019-05-30T09:18:41.598Z,9.03
2019-05-30T09:21:13.856Z,9.50
2019-05-30T09:23:51.145Z,8.95
2019-05-30T09:26:26.051Z,8.08
2019-05-30T09:29:04.732Z,8.45
2019-05-30T09:31:39.965Z,8.03
2019-05-30T09:35:08.952Z,8.35
2019-05-30T09:37:45.833Z,8.25
2019-05-30T09:40:21.360Z,8.35
2019-05-30T09:42:59.670Z,8.55
2019-05-30T09:46:03.873Z,7.67
2019-05-30T09:48:32.497Z,6.85
2019-05-30T09:51:07.167Z,6.83
2019-05-30T09:53:39.486Z,7.45
2019-05-30T09:56:18.935Z,7.00
2019-05-30T09:58:50.377Z,6.50
2019-05-30T10:01:19.554Z,5.90
2019-05-30T10:04:14.096Z,5.75
2019-05-30T10:06:46.326Z,5.53
2019-05-30T10:09:30.831Z,5.60
2019-05-30T10:12:02.081Z,4.70
2019-05-30T10:14:36.777Z,4.35
2019-05-30T10:17:59.603Z,4.75
2019-05-30T10:20:42.044Z,4.55
2019-05-30T10:23:14.078Z,5.12
2019-05-30T10:25:42.680Z,6.12
2019-05-30T10:28:14.238Z,5.67
2019-05-30T10:31:03.718Z,5.30
2019-05-30T10:33:37.600Z,6.83
2019-05-30T10:36:06.393Z,4.95
2019-05-30T10:38:37.197Z,4.75
2019-05-30T10:41:15.073Z,4.03
2019-05-30T10:43:49.069Z,4.40
2019-05-30T10:46:21.689Z,4.15
2019-05-30T10:49:34.821Z,3.95
2019-05-30T10:51:59.558Z,5.97
2019-05-30T10:54:29.285Z,5.85
2019-05-30T10:57:06.918Z,6.10
2019-05-30T10:59:36.024Z,5.30
2019-05-30T11:02:05.057Z,5.72
2019-05-30T11:04:39.493Z,5.10
2019-05-30T11:08:01.255Z,4.97
2019-05-30T11:10:43.143Z,5.22
2019-05-30T11:13:15.735Z,4.72
2019-05-30T11:16:40.218Z,5.42
2019-05-30T11:22:47.888Z,5.17
2019-05-30T11:25:19.869Z,5.15
2019-05-30T11:27:56.864Z,5.20
2019-05-30T11:30:50.600Z,5.12
2019-05-30T11:33:19.671Z,5.78
2019-05-30T11:36:14.904Z,5.35
2019-05-30T11:42:31.488Z,4.15
2019-05-30T11:45:04.822Z,3.58
2019-05-30T11:47:46.981Z,2.98
2019-05-30T11:50:25.661Z,3.20
2019-05-30T11:53:39.982Z,3.30
2019-05-30T11:56:31.459Z,3.80
2019-05-30T11:59:56.157Z,5.10
2019-05-30T12:02:48.655Z,5.03
2019-05-30T12:10:03.413Z,4.70
2019-05-30T12:11:51.169Z,5.22
2019-05-30T12:14:49.367Z,4.30
2019-05-30T12:18:14.618Z,3.90
2019-05-30T12:26:39.944Z,3.20
2019-05-30T12:29:52.072Z,2.92
2019-05-30T12:32:31.605Z,3.15
2019-05-30T12:35:05.581Z,2.90
2019-05-30T12:37:34.358Z,2.30
2019-05-30T12:40:09.144Z,2.70
2019-05-30T12:43:24.379Z,3.75
2019-05-30T12:45:59.151Z,2.40
2019-05-30T12:48:33.093Z,2.70
2019-05-30T12:51:05.571Z,2.87
2019-05-30T12:53:49.968Z,3.15
2019-05-30T12:56:18.632Z,2.83
2019-05-30T12:58:54.571Z,2.65
2019-05-30T13:01:29.844Z,2.33
2019-05-30T13:04:01.097Z,2.25
2019-05-30T13:06:33.139Z,2.22
2019-05-30T13:09:06.066Z,2.10
2019-05-30T13:11:39.400Z,2.30
2019-05-30T13:14:20.684Z,1.90
2019-05-30T13:16:50.633Z,1.87
2019-05-30T13:19:27.274Z,1.72
2019-05-30T13:21:59.713Z,1.50
2019-05-30T13:24:40.236Z,1.80
2019-05-30T13:28:06.641Z,1.70
2019-05-30T13:30:36.270Z,1.42
2019-05-30T13:34:04.846Z,1.70
2019-05-30T13:36:48.638Z,1.40
2019-05-30T13:39:29.764Z,1.30
2019-05-30T13:44:47.926Z,1.60
2019-05-30T13:47:32.048Z,1.60
2019-05-30T13:50:26.581Z,1.12
2019-05-30T13:53:19.422Z,1.35
2019-05-30T13:55:49.823Z,1.02
2019-05-30T14:02:12.938Z,1.55
2019-05-30T14:04:45.815Z,1.20
2019-05-30T14:07:24.642Z,1.40
2019-05-30T14:10:06.397Z,1.35
2019-05-30T14:13:06.746Z,1.20
2019-05-30T14:15:55.832Z,1.32
2019-05-30T14:27:54.015Z,1.32
2019-05-30T14:30:59.085Z,1.10
2019-05-30T14:36:34.783Z,1.05
2019-05-30T14:43:34.782Z,1.40
2019-05-30T17:38:22.346Z,1.75
2019-05-30T18:10:20.730Z,2.30
2019-05-30T18:18:37.075Z,2.17
2019-05-30T19:18:20.893Z,2.37
2019-05-30T19:21:07.689Z,2.47
2019-05-30T19:23:42.074Z,2.52
2019-05-30T19:26:12.876Z,2.87
2019-05-30T19:28:41.812Z,2.60
2019-05-30T19:31:12.710Z,2.30
2019-05-30T19:34:05.900Z,2.00
2019-05-30T19:36:58.375Z,2.08
2019-05-30T19:39:31.356Z,2.40
2019-05-30T19:42:04.104Z,2.33
2019-05-30T19:44:42.743Z,2.05
2019-05-30T19:47:18.872Z,2.10
2019-05-30T19:49:50.197Z,2.22
2019-05-30T19:52:24.927Z,2.52
2019-05-30T19:55:02.237Z,2.02
2019-05-30T19:57:31.529Z,1.80
2019-05-30T20:02:58.253Z,1.70
2019-05-30T20:05:34.560Z,1.65
2019-05-30T20:08:04.796Z,2.02
2019-05-30T20:10:33.649Z,1.82
2019-05-30T20:13:42.084Z,2.15
2019-05-30T20:16:15.549Z,2.08
2019-05-30T20:18:45.940Z,2.00
2019-05-30T20:21:18.868Z,2.10
2019-05-30T20:23:55.316Z,1.90
2019-05-30T20:26:19.037Z,2.25
2019-05-30T20:28:47.849Z,2.05
2019-05-30T20:31:16.556Z,2.67
2019-05-30T20:33:46.914Z,2.00
2019-05-30T20:36:16.026Z,1.80
2019-05-30T20:38:46.916Z,2.25
2019-05-30T20:41:16.516Z,1.92
2019-05-30T20:43:45.227Z,1.80
2019-05-30T20:46:23.113Z,1.85
2019-05-30T20:48:47.741Z,1.82
2019-05-30T20:51:21.408Z,2.10
2019-05-30T20:53:47.684Z,2.00
2019-05-30T20:56:19.162Z,1.72
2019-05-30T20:58:47.922Z,2.12
2019-05-30T21:01:16.674Z,1.80
2019-05-30T21:03:45.908Z,2.50
2019-05-30T21:06:14.842Z,2.30
2019-05-30T21:08:43.854Z,2.37
2019-05-30T21:11:12.961Z,2.55
2019-05-30T21:13:42.296Z,2.75
2019-05-30T21:16:13.390Z,2.50
2019-05-30T21:18:46.746Z,2.62
2019-05-30T21:21:15.562Z,2.80
2019-05-30T21:23:44.474Z,2.37
2019-05-30T21:26:13.220Z,2.75
2019-05-30T21:28:43.591Z,2.50
2019-05-30T21:31:12.372Z,2.30
2019-05-30T21:33:41.953Z,2.60
2019-05-30T21:36:11.154Z,2.20
2019-05-30T21:38:39.978Z,2.45
2019-05-30T21:41:09.461Z,2.55
2019-05-30T21:43:38.369Z,2.50
2019-05-30T21:46:08.990Z,2.30
2019-05-30T21:48:38.746Z,2.33
2019-05-30T21:51:08.466Z,2.45
2019-05-30T21:53:37.119Z,2.10
2019-05-30T21:56:05.765Z,2.10
2019-05-30T21:58:34.390Z,2.37
2019-05-30T22:01:21.425Z,1.95
2019-05-30T22:03:53.385Z,2.10
2019-05-30T22:06:22.341Z,2.27
2019-05-30T22:08:51.558Z,2.50
2019-05-30T22:11:20.923Z,2.27
2019-05-30T22:13:49.693Z,2.25
2019-05-30T22:16:19.605Z,2.20
2019-05-30T22:18:50.571Z,1.90
2019-05-30T22:21:19.323Z,2.30
2019-05-30T22:23:48.208Z,1.95
2019-05-30T22:26:17.026Z,1.80
2019-05-30T22:28:46.298Z,2.00
2019-05-30T22:31:14.969Z,1.95
2019-05-30T22:33:44.672Z,2.45
2019-05-30T22:36:13.586Z,1.80
2019-05-30T22:38:42.747Z,1.92
2019-05-30T22:41:13.507Z,1.98
2019-05-30T22:43:46.258Z,2.42
2019-05-30T22:46:16.911Z,2.17
2019-05-30T22:48:48.348Z,1.90
2019-05-30T22:51:17.001Z,2.12
2019-05-30T22:53:46.962Z,2.27
2019-05-30T22:56:15.680Z,2.30
2019-05-30T22:58:45.494Z,2.33
2019-05-30T23:01:15.113Z,2.10
2019-05-30T23:03:44.965Z,2.20
2019-05-30T23:06:13.816Z,2.10
2019-05-30T23:08:42.746Z,2.08
2019-05-30T23:11:12.369Z,2.27
2019-05-30T23:13:41.078Z,2.20
2019-05-30T23:16:14.503Z,1.70
2019-05-30T23:18:43.273Z,2.08
2019-05-30T23:21:12.000Z,1.80
2019-05-30T23:23:40.671Z,2.08
2019-05-30T23:26:09.527Z,2.37
2019-05-30T23:28:38.200Z,2.25
2019-05-30T23:31:06.819Z,2.20
2019-05-30T23:33:35.595Z,2.15
2019-05-30T23:36:04.345Z,2.72
2019-05-30T23:38:33.474Z,2.30
2019-05-30T23:41:03.130Z,2.47
2019-05-30T23:43:31.725Z,2.70
2019-05-30T23:46:03.118Z,2.50
2019-05-30T23:48:31.822Z,2.50
2019-05-30T23:51:00.505Z,2.50
2019-05-30T23:53:30.127Z,2.42
2019-05-30T23:55:59.040Z,3.02
2019-05-30T23:58:27.812Z,2.62
